createdAt,value
2022-12-08T00:01:13.273Z,14.27
2022-12-08T00:03:40.341Z,11.60
2022-12-08T00:06:32.035Z,12.23
2022-12-08T00:09:17.185Z,11.25
2022-12-08T00:11:43.703Z,15.70
2022-12-08T00:14:10.198Z,16.77
2022-12-08T00:16:36.749Z,13.05
2022-12-08T00:19:03.339Z,10.23
2022-12-08T00:21:29.873Z,13.00
2022-12-08T00:23:57.477Z,17.60
2022-12-08T00:26:25.434Z,15.85
2022-12-08T00:28:51.952Z,11.98
2022-12-08T00:31:18.542Z,17.73
2022-12-08T00:33:45.152Z,14.60
2022-12-08T00:36:13.947Z,17.30
2022-12-08T00:38:41.728Z,13.35
2022-12-08T00:41:16.964Z,14.00
2022-12-08T00:43:43.723Z,17.65
2022-12-08T00:46:10.857Z,14.55
2022-12-08T00:48:37.767Z,15.63
2022-12-08T00:51:04.290Z,15.43
2022-12-08T00:53:31.816Z,13.60
2022-12-08T00:55:58.389Z,15.98
2022-12-08T00:58:24.831Z,16.33
2022-12-08T01:00:51.484Z,19.63
2022-12-08T01:03:18.072Z,17.55
2022-12-08T01:05:44.691Z,17.38
2022-12-08T01:08:11.279Z,19.15
2022-12-08T01:10:39.354Z,14.83
2022-12-08T01:13:06.343Z,15.85
2022-12-08T01:15:32.818Z,17.27
2022-12-08T01:17:59.334Z,16.60
2022-12-08T01:20:25.836Z,17.48
2022-12-08T01:22:52.304Z,16.20
2022-12-08T01:25:19.008Z,15.63
2022-12-08T01:27:45.508Z,15.07
2022-12-08T01:30:13.224Z,15.20
2022-12-08T01:32:39.738Z,15.10
2022-12-08T01:35:06.478Z,17.13
2022-12-08T01:37:33.009Z,18.58
2022-12-08T01:39:59.464Z,17.77
2022-12-08T01:42:26.139Z,13.50
2022-12-08T01:45:02.467Z,16.13
2022-12-08T01:47:42.631Z,15.40
2022-12-08T01:50:12.648Z,19.38
2022-12-08T01:52:42.913Z,17.35
2022-12-08T01:55:32.958Z,17.67
2022-12-08T01:58:08.233Z,18.80
2022-12-08T02:00:34.727Z,16.80
2022-12-08T02:03:06.435Z,17.38
2022-12-08T02:05:38.798Z,16.47
2022-12-08T02:08:08.284Z,20.88
2022-12-08T02:10:37.384Z,18.90
2022-12-08T02:13:06.893Z,15.27
2022-12-08T02:15:52.247Z,16.97
2022-12-08T02:18:37.199Z,18.50
2022-12-08T02:21:10.827Z,16.60
2022-12-08T02:23:50.456Z,10.63
2022-12-08T02:26:41.882Z,17.00
2022-12-08T02:29:45.861Z,15.65
2022-12-08T02:32:57.158Z,19.83
2022-12-08T02:35:44.780Z,16.50
2022-12-08T02:38:23.124Z,20.08
2022-12-08T02:41:23.473Z,18.67
2022-12-08T02:44:16.097Z,15.77
2022-12-08T02:46:50.005Z,16.67
2022-12-08T02:49:16.730Z,18.73
2022-12-08T02:51:43.388Z,17.75
2022-12-08T02:54:09.984Z,17.35
2022-12-08T02:57:04.837Z,19.83
2022-12-08T02:59:52.112Z,18.67
2022-12-08T03:02:34.939Z,15.27
2022-12-08T03:05:19.146Z,14.57
2022-12-08T03:08:02.937Z,19.27
2022-12-08T03:10:37.074Z,18.67
2022-12-08T03:13:12.974Z,12.90
2022-12-08T03:15:41.462Z,20.23
2022-12-08T03:18:12.205Z,19.27
2022-12-08T03:20:40.590Z,20.17
2022-12-08T03:23:10.647Z,21.30
2022-12-08T03:25:43.053Z,19.17
2022-12-08T03:28:09.862Z,20.23
2022-12-08T03:30:40.932Z,16.75
2022-12-08T03:33:15.742Z,15.30
2022-12-08T03:35:43.150Z,16.13
2022-12-08T03:38:13.532Z,17.17
2022-12-08T03:40:40.856Z,15.32
2022-12-08T03:43:07.396Z,12.53
2022-12-08T03:45:34.728Z,17.75
2022-12-08T03:48:01.278Z,20.30
2022-12-08T03:50:28.169Z,21.98
2022-12-08T03:52:54.711Z,14.00
2022-12-08T03:55:21.472Z,15.02
2022-12-08T03:57:48.014Z,17.75
2022-12-08T04:00:16.339Z,21.35
2022-12-08T04:02:43.114Z,13.50
2022-12-08T04:05:09.669Z,15.43
2022-12-08T04:07:36.362Z,15.85
2022-12-08T04:10:03.849Z,18.40
2022-12-08T04:12:31.283Z,19.15
2022-12-08T04:14:57.786Z,17.27
2022-12-08T04:17:24.338Z,21.05
2022-12-08T04:19:50.835Z,14.20
2022-12-08T04:22:17.341Z,15.07
2022-12-08T04:24:43.839Z,20.02
2022-12-08T04:27:10.335Z,20.67
2022-12-08T04:29:36.863Z,15.65
2022-12-08T04:32:03.594Z,17.58
2022-12-08T04:34:30.136Z,17.30
2022-12-08T04:36:56.637Z,16.42
2022-12-08T04:39:23.163Z,20.35
2022-12-08T04:41:49.671Z,19.92
2022-12-08T04:44:16.159Z,15.07
2022-12-08T04:46:43.773Z,20.10
2022-12-08T04:49:10.771Z,13.73
2022-12-08T04:51:37.265Z,20.83
2022-12-08T04:54:03.838Z,17.38
2022-12-08T04:56:30.347Z,21.00
2022-12-08T04:58:56.840Z,20.35
2022-12-08T05:01:23.486Z,18.67
2022-12-08T05:03:50.036Z,14.65
2022-12-08T05:06:16.642Z,20.35
2022-12-08T05:08:43.360Z,17.70
2022-12-08T05:11:11.419Z,14.80
2022-12-08T05:13:37.988Z,16.30
2022-12-08T05:16:07.904Z,14.63
2022-12-08T05:18:35.208Z,15.07
2022-12-08T05:21:01.848Z,18.85
2022-12-08T05:23:28.417Z,17.65
2022-12-08T05:25:54.893Z,17.30
2022-12-08T05:28:42.622Z,15.90
2022-12-08T05:31:08.139Z,12.43
2022-12-08T05:33:34.652Z,17.90
2022-12-08T05:36:01.174Z,18.33
2022-12-08T05:38:27.731Z,17.65
2022-12-08T05:40:54.238Z,19.60
2022-12-08T05:43:21.147Z,16.67
2022-12-08T05:45:47.715Z,19.92
2022-12-08T05:48:14.319Z,17.90
2022-12-08T05:50:46.135Z,17.08
2022-12-08T05:53:12.559Z,16.17
2022-12-08T05:55:39.385Z,16.20
2022-12-08T05:58:08.173Z,15.93
2022-12-08T06:00:34.893Z,17.40
2022-12-08T06:03:01.604Z,19.60
2022-12-08T06:05:28.269Z,15.80
2022-12-08T06:07:54.890Z,13.60
2022-12-08T06:10:21.448Z,17.13
2022-12-08T06:12:48.007Z,23.70
2022-12-08T06:15:14.539Z,13.93
2022-12-08T06:17:41.004Z,16.88
2022-12-08T06:20:08.092Z,21.33
2022-12-08T06:22:35.062Z,13.65
2022-12-08T06:25:04.033Z,15.52
2022-12-08T06:27:33.513Z,15.77
2022-12-08T06:30:00.028Z,19.42
2022-12-08T06:32:27.699Z,17.95
2022-12-08T06:34:54.399Z,16.48
2022-12-08T06:37:20.882Z,16.20
2022-12-08T06:39:47.392Z,18.20
2022-12-08T06:42:32.605Z,17.83
2022-12-08T06:44:59.928Z,19.33
2022-12-08T06:47:26.628Z,20.13
2022-12-08T06:49:53.262Z,14.57
2022-12-08T06:52:19.764Z,19.58
2022-12-08T06:54:46.267Z,17.37
2022-12-08T06:57:12.786Z,14.45
2022-12-08T06:59:39.809Z,15.85
2022-12-08T07:02:06.917Z,12.60
2022-12-08T07:04:33.430Z,15.03
2022-12-08T07:06:59.934Z,20.20
2022-12-08T07:09:26.436Z,17.48
2022-12-08T07:11:52.924Z,16.85
2022-12-08T07:14:23.545Z,16.65
2022-12-08T07:16:51.566Z,19.52
2022-12-08T07:19:20.796Z,16.80
2022-12-08T07:21:47.586Z,17.63
2022-12-08T07:24:14.106Z,20.60
2022-12-08T07:26:41.159Z,17.15
2022-12-08T07:29:08.468Z,13.43
2022-12-08T07:31:34.932Z,16.10
2022-12-08T07:34:01.426Z,12.27
2022-12-08T07:36:28.095Z,16.88
2022-12-08T07:38:54.567Z,13.17
2022-12-08T07:41:23.909Z,18.08
2022-12-08T07:43:51.023Z,16.08
2022-12-08T07:46:20.598Z,17.45
2022-12-08T07:48:47.444Z,11.82
2022-12-08T07:51:15.479Z,15.23
2022-12-08T07:53:48.396Z,18.17
2022-12-08T07:56:18.609Z,11.07
2022-12-08T07:58:47.478Z,14.77
2022-12-08T08:01:32.401Z,19.02
2022-12-08T08:04:01.776Z,17.67
2022-12-08T08:06:28.644Z,13.50
2022-12-08T08:08:55.276Z,15.13
2022-12-08T08:11:22.567Z,14.20
2022-12-08T08:13:52.675Z,15.23
2022-12-08T08:16:19.753Z,16.42
2022-12-08T08:18:49.028Z,10.95
2022-12-08T08:21:43.929Z,16.35
2022-12-08T08:24:02.791Z,13.52
2022-12-08T08:26:29.285Z,14.50
2022-12-08T08:28:55.851Z,15.13
2022-12-08T08:31:26.934Z,16.70
2022-12-08T08:33:53.946Z,17.17
2022-12-08T08:36:22.009Z,14.73
2022-12-08T08:38:48.637Z,10.70
2022-12-08T08:41:15.156Z,17.42
2022-12-08T08:43:41.657Z,15.90
2022-12-08T08:46:08.972Z,18.15
2022-12-08T08:48:36.191Z,11.07
2022-12-08T08:51:11.145Z,15.35
2022-12-08T08:53:37.876Z,14.02
2022-12-08T08:56:12.196Z,10.40
2022-12-08T08:58:38.977Z,17.05
2022-12-08T09:01:05.764Z,10.45
2022-12-08T09:03:32.619Z,11.52
2022-12-08T09:05:59.537Z,12.40
2022-12-08T09:08:26.772Z,18.52
2022-12-08T09:10:53.364Z,10.98
2022-12-08T09:13:19.925Z,11.93
2022-12-08T09:15:46.451Z,12.43
2022-12-08T09:18:13.123Z,15.32
2022-12-08T09:20:39.611Z,14.52
2022-12-08T09:23:06.111Z,11.00
2022-12-08T09:25:32.719Z,11.30
2022-12-08T09:27:59.319Z,13.05
2022-12-08T09:30:25.843Z,9.83
2022-12-08T09:32:52.384Z,9.68
2022-12-08T09:35:18.922Z,17.13
2022-12-08T09:37:45.460Z,8.38
2022-12-08T09:40:17.004Z,12.67
2022-12-08T09:42:50.783Z,14.30
2022-12-08T09:45:18.546Z,9.13
2022-12-08T09:48:03.815Z,12.13
2022-12-08T09:50:43.579Z,12.90
2022-12-08T09:53:17.005Z,15.20
2022-12-08T09:55:53.663Z,9.48
2022-12-08T09:58:35.405Z,9.70
2022-12-08T10:01:02.291Z,11.77
2022-12-08T10:03:30.848Z,8.85
2022-12-08T10:06:15.834Z,8.40
2022-12-08T10:09:12.578Z,10.23
2022-12-08T10:11:42.690Z,11.75
2022-12-08T10:14:28.565Z,9.32
2022-12-08T10:17:00.589Z,10.25
2022-12-08T10:19:28.700Z,10.75
2022-12-08T10:21:56.856Z,10.80
2022-12-08T10:24:29.156Z,9.95
2022-12-08T10:26:56.106Z,11.50
2022-12-08T10:29:22.694Z,8.35
2022-12-08T10:31:49.377Z,14.38
2022-12-08T10:34:20.233Z,13.55
2022-12-08T10:36:52.621Z,8.10
2022-12-08T10:39:45.436Z,8.47
2022-12-08T10:42:14.667Z,10.70
2022-12-08T10:44:59.410Z,10.13
2022-12-08T10:47:27.985Z,8.45
2022-12-08T10:50:30.039Z,7.27
2022-12-08T10:53:08.475Z,9.13
2022-12-08T10:55:42.373Z,12.02
2022-12-08T10:58:35.641Z,9.18
2022-12-08T11:01:06.744Z,11.75
2022-12-08T11:03:38.728Z,11.40
2022-12-08T11:06:26.491Z,8.90
2022-12-08T11:08:55.832Z,8.48
2022-12-08T11:11:36.597Z,10.40
2022-12-08T11:14:07.891Z,9.30
2022-12-08T11:16:35.669Z,8.57
2022-12-08T11:19:07.952Z,9.52
2022-12-08T11:21:37.161Z,8.43
2022-12-08T11:24:25.243Z,6.17
2022-12-08T11:27:00.287Z,7.15
2022-12-08T11:29:28.789Z,8.93
2022-12-08T11:32:10.875Z,7.95
2022-12-08T11:34:47.809Z,8.97
2022-12-08T11:37:34.684Z,6.55
2022-12-08T11:40:07.063Z,8.80
2022-12-08T11:42:44.339Z,6.65
2022-12-08T11:45:21.732Z,8.73
2022-12-08T11:48:01.823Z,13.70
2022-12-08T11:51:06.773Z,7.43
2022-12-08T11:53:43.243Z,7.68
2022-12-08T11:56:26.418Z,7.15
2022-12-08T11:58:59.131Z,7.80
2022-12-08T12:01:26.544Z,6.90
2022-12-08T12:04:05.189Z,8.05
2022-12-08T12:06:55.080Z,8.13
2022-12-08T12:09:44.786Z,5.88
2022-12-08T12:12:49.799Z,7.07
2022-12-08T12:15:16.261Z,5.53
2022-12-08T12:17:47.722Z,7.03
2022-12-08T12:20:23.811Z,4.47
2022-12-08T12:22:57.720Z,12.82
2022-12-08T12:25:26.063Z,9.82
2022-12-08T12:27:57.592Z,8.70
2022-12-08T12:30:27.180Z,5.97
2022-12-08T12:32:56.409Z,8.68
2022-12-08T12:35:35.981Z,4.32
2022-12-08T12:38:26.768Z,8.13
2022-12-08T12:41:01.708Z,7.37
2022-12-08T12:43:32.455Z,7.40
2022-12-08T12:46:24.003Z,9.15
2022-12-08T12:48:51.872Z,5.45
2022-12-08T12:51:39.819Z,8.80
2022-12-08T12:54:21.789Z,9.03
2022-12-08T12:56:56.164Z,5.18
2022-12-08T12:59:35.557Z,6.97
2022-12-08T13:02:02.734Z,8.38
2022-12-08T13:04:37.700Z,10.33
2022-12-08T13:07:04.896Z,4.07
2022-12-08T13:09:39.640Z,6.03
2022-12-08T13:12:12.553Z,4.90
2022-12-08T13:14:51.015Z,7.05
2022-12-08T13:17:27.324Z,6.93
2022-12-08T13:20:01.229Z,8.40
2022-12-08T13:22:49.499Z,4.85
2022-12-08T13:25:40.772Z,6.00
2022-12-08T13:28:16.360Z,5.15
2022-12-08T13:30:52.542Z,6.17
2022-12-08T13:33:45.744Z,5.30
2022-12-08T13:36:38.019Z,5.03
2022-12-08T13:39:05.874Z,9.57
2022-12-08T13:41:43.432Z,8.02
2022-12-08T13:59:28.328Z,5.38
2022-12-08T14:01:58.431Z,6.68
2022-12-08T14:07:13.948Z,7.13
2022-12-08T14:09:41.805Z,6.55
2022-12-08T14:12:23.465Z,6.20
2022-12-08T14:15:06.118Z,3.80
2022-12-08T14:17:33.972Z,3.60
2022-12-08T14:20:12.646Z,4.97
2022-12-08T14:22:40.828Z,8.13
2022-12-08T14:25:13.616Z,7.68
2022-12-08T14:27:40.430Z,3.10
2022-12-08T14:30:16.132Z,7.27
2022-12-08T14:32:46.998Z,6.18
2022-12-08T14:35:32.521Z,7.47
2022-12-08T14:38:01.888Z,6.40
2022-12-08T14:40:36.963Z,6.80
2022-12-08T14:43:18.330Z,5.75
2022-12-08T14:45:44.950Z,8.25
2022-12-08T14:48:25.630Z,5.38
2022-12-08T14:51:19.212Z,6.85
2022-12-08T14:53:53.632Z,8.63
2022-12-08T14:56:24.403Z,6.00
2022-12-08T14:59:04.176Z,9.13
2022-12-08T15:01:31.050Z,3.85
2022-12-08T15:04:06.670Z,8.00
2022-12-08T15:06:33.363Z,11.40
2022-12-08T15:09:13.548Z,9.02
2022-12-08T15:11:40.030Z,7.88
2022-12-08T15:14:27.696Z,9.80
2022-12-08T15:16:55.241Z,6.65
2022-12-08T15:19:24.232Z,6.80
2022-12-08T15:21:51.132Z,6.43
2022-12-08T15:24:19.455Z,6.40
2022-12-08T15:26:48.890Z,15.15
2022-12-08T15:29:27.848Z,9.90
2022-12-08T15:31:58.335Z,7.07
2022-12-08T15:34:25.265Z,8.45
2022-12-08T15:36:53.721Z,12.18
2022-12-08T15:39:35.136Z,14.17
2022-12-08T15:42:03.787Z,11.20
2022-12-08T15:44:32.574Z,10.65
2022-12-08T15:47:00.039Z,9.00
2022-12-08T15:49:26.751Z,12.93
2022-12-08T15:52:02.008Z,11.20
2022-12-08T15:54:34.626Z,11.10
2022-12-08T15:57:19.290Z,8.35
2022-12-08T15:59:48.058Z,7.50
2022-12-08T16:02:20.900Z,7.60
2022-12-08T16:05:33.461Z,9.52
2022-12-08T16:07:38.044Z,10.40
2022-12-08T16:10:06.500Z,9.38
2022-12-08T16:15:55.549Z,8.32
2022-12-08T16:18:28.393Z,8.70
2022-12-08T16:23:44.196Z,9.43
2022-12-08T16:26:35.605Z,10.10
2022-12-08T16:29:04.707Z,8.90
2022-12-08T16:31:31.755Z,7.93
2022-12-08T16:33:58.476Z,11.75
2022-12-08T16:36:25.061Z,10.10
2022-12-08T16:38:51.528Z,11.93
2022-12-08T16:41:36.581Z,10.30
2022-12-08T16:44:05.107Z,9.40
2022-12-08T16:46:32.072Z,10.17
2022-12-08T16:48:59.070Z,10.48
2022-12-08T16:51:27.411Z,9.75
2022-12-08T16:53:56.738Z,9.95
2022-12-08T16:56:28.795Z,11.40
2022-12-08T16:58:58.707Z,8.85
2022-12-08T17:01:25.374Z,10.48
2022-12-08T17:04:22.620Z,9.77
2022-12-08T17:06:38.631Z,8.02
2022-12-08T17:09:05.515Z,11.68
2022-12-08T17:11:37.524Z,9.80
2022-12-08T17:14:09.095Z,10.00
2022-12-08T17:16:35.804Z,9.20
2022-12-08T17:19:02.549Z,8.07
2022-12-08T17:21:29.257Z,11.20
2022-12-08T17:23:56.115Z,9.90
2022-12-08T17:26:22.668Z,12.60
2022-12-08T17:29:00.474Z,9.35
2022-12-08T17:31:30.376Z,10.27
2022-12-08T17:34:02.244Z,11.43
2022-12-08T17:36:29.064Z,10.80
2022-12-08T17:38:56.960Z,12.38
2022-12-08T17:41:23.469Z,8.23
2022-12-08T17:43:50.035Z,11.05
2022-12-08T17:46:18.671Z,11.35
2022-12-08T17:48:45.334Z,13.40
2022-12-08T17:51:11.942Z,8.48
2022-12-08T17:53:40.530Z,14.25
2022-12-08T17:56:14.283Z,13.80
2022-12-08T17:58:40.771Z,11.53
2022-12-08T18:01:08.863Z,13.02
2022-12-08T18:03:36.211Z,9.38
2022-12-08T18:06:08.154Z,8.90
2022-12-08T18:08:34.902Z,16.67
2022-12-08T18:11:02.077Z,11.05
2022-12-08T18:13:29.385Z,10.27
2022-12-08T18:15:55.957Z,10.87
2022-12-08T18:18:25.266Z,12.70
2022-12-08T18:20:51.951Z,11.15
2022-12-08T18:23:18.763Z,10.13
2022-12-08T18:25:45.709Z,10.60
2022-12-08T18:28:12.343Z,13.57
2022-12-08T18:30:40.511Z,14.75
2022-12-08T18:33:07.447Z,10.98
2022-12-08T18:35:37.523Z,7.30
2022-12-08T18:38:04.021Z,11.70
2022-12-08T18:40:33.768Z,11.40
2022-12-08T18:43:00.285Z,9.63
2022-12-08T18:45:26.800Z,12.27
2022-12-08T18:47:53.458Z,14.40
2022-12-08T18:50:20.106Z,12.40
2022-12-08T18:52:47.110Z,12.13
2022-12-08T18:55:14.684Z,8.55
2022-12-08T18:57:43.141Z,10.90
2022-12-08T19:00:15.962Z,10.40
2022-12-08T19:02:43.115Z,13.38
2022-12-08T19:05:11.889Z,14.23
2022-12-08T19:07:38.772Z,14.50
2022-12-08T19:10:06.828Z,14.35
2022-12-08T19:12:33.713Z,13.80
2022-12-08T19:15:00.254Z,12.07
2022-12-08T19:17:26.855Z,10.67
2022-12-08T19:19:53.435Z,10.48
2022-12-08T19:22:21.055Z,13.73
2022-12-08T19:24:47.579Z,15.02
2022-12-08T19:27:14.071Z,12.82
2022-12-08T19:29:40.665Z,15.38
2022-12-08T19:32:07.334Z,12.88
2022-12-08T19:34:33.889Z,12.63
2022-12-08T19:37:00.450Z,10.15
2022-12-08T19:39:45.493Z,11.50
2022-12-08T19:42:32.871Z,10.13
2022-12-08T19:45:04.198Z,12.57
2022-12-08T19:47:30.848Z,10.32
2022-12-08T19:50:17.454Z,13.82
2022-12-08T19:52:44.678Z,13.77
2022-12-08T19:55:12.149Z,12.27
2022-12-08T19:57:38.816Z,13.85
2022-12-08T20:00:07.155Z,12.45
2022-12-08T20:02:34.016Z,10.07
2022-12-08T20:05:00.612Z,14.95
2022-12-08T20:07:27.117Z,11.68
2022-12-08T20:09:53.762Z,11.17
2022-12-08T20:12:26.167Z,12.40
2022-12-08T20:14:53.031Z,14.52
2022-12-08T20:17:19.539Z,10.25
2022-12-08T20:19:46.142Z,10.43
2022-12-08T20:22:12.610Z,12.20
2022-12-08T20:24:39.152Z,10.90
2022-12-08T20:27:05.688Z,12.10
2022-12-08T20:29:32.404Z,11.48
2022-12-08T20:31:59.074Z,12.07
2022-12-08T20:34:25.689Z,10.43
2022-12-08T20:36:52.272Z,12.60
2022-12-08T20:39:19.024Z,10.70
2022-12-08T20:41:46.665Z,15.18
2022-12-08T20:44:13.300Z,10.00
2022-12-08T20:46:41.851Z,17.30
2022-12-08T20:49:11.654Z,13.43
2022-12-08T20:51:41.903Z,7.93
2022-12-08T20:54:09.694Z,11.48
2022-12-08T20:56:36.817Z,10.13
2022-12-08T20:59:03.595Z,13.55
2022-12-08T21:01:30.342Z,11.38
2022-12-08T21:03:57.230Z,10.75
2022-12-08T21:06:26.764Z,10.73
2022-12-08T21:08:54.030Z,10.05
2022-12-08T21:11:20.821Z,10.52
2022-12-08T21:13:47.890Z,12.53
2022-12-08T21:16:15.675Z,11.65
2022-12-08T21:18:42.871Z,11.35
2022-12-08T21:21:12.240Z,12.85
2022-12-08T21:23:38.984Z,12.15
2022-12-08T21:26:14.660Z,12.48
2022-12-08T21:28:41.948Z,7.82
2022-12-08T21:31:10.924Z,10.40
2022-12-08T21:33:37.703Z,13.35
2022-12-08T21:36:11.381Z,12.32
2022-12-08T21:38:39.548Z,13.18
2022-12-08T21:41:09.172Z,11.48
2022-12-08T21:43:36.400Z,15.90
2022-12-08T21:46:03.962Z,15.52
2022-12-08T21:48:30.835Z,13.07
2022-12-08T21:51:04.474Z,13.68
2022-12-08T21:53:33.609Z,13.18
2022-12-08T21:56:00.171Z,13.35
2022-12-08T21:58:26.839Z,13.73
2022-12-08T22:00:54.417Z,11.57
2022-12-08T22:03:21.525Z,11.70
2022-12-08T22:05:48.687Z,14.53
2022-12-08T22:08:15.389Z,13.80
2022-12-08T22:10:48.252Z,12.18
2022-12-08T22:13:14.877Z,14.95
2022-12-08T22:15:45.906Z,11.27
2022-12-08T22:18:12.875Z,12.65
2022-12-08T22:20:43.911Z,13.65
2022-12-08T22:23:11.440Z,15.10
2022-12-08T22:25:38.017Z,13.17
2022-12-08T22:28:04.718Z,12.15
2022-12-08T22:30:37.239Z,13.73
2022-12-08T22:33:05.495Z,15.20
2022-12-08T22:35:32.168Z,16.45
2022-12-08T22:37:59.133Z,16.15
2022-12-08T22:40:25.566Z,14.60
2022-12-08T22:42:52.237Z,15.10
2022-12-08T22:45:18.901Z,15.35
2022-12-08T22:47:45.514Z,19.65
2022-12-08T22:50:12.414Z,16.07
2022-12-08T22:52:42.095Z,16.00
2022-12-08T22:55:08.793Z,18.70
2022-12-08T22:57:35.329Z,16.75
2022-12-08T23:00:02.057Z,16.93
2022-12-08T23:02:28.884Z,16.50
2022-12-08T23:04:57.247Z,15.32
2022-12-08T23:07:24.108Z,16.17
2022-12-08T23:09:50.635Z,17.63
2022-12-08T23:12:17.175Z,15.30
2022-12-08T23:14:43.798Z,18.25
2022-12-08T23:17:10.413Z,16.67
2022-12-08T23:19:38.381Z,17.20
2022-12-08T23:22:05.375Z,17.02
2022-12-08T23:24:31.949Z,18.83
2022-12-08T23:27:01.702Z,14.90
2022-12-08T23:29:31.558Z,18.70
2022-12-08T23:31:58.528Z,15.52
2022-12-08T23:34:28.778Z,17.67
2022-12-08T23:36:58.696Z,16.95
2022-12-08T23:39:25.293Z,18.00
2022-12-08T23:41:51.785Z,17.08
2022-12-08T23:44:18.345Z,16.67
2022-12-08T23:46:44.919Z,18.80
2022-12-08T23:49:11.521Z,16.58
2022-12-08T23:51:38.157Z,16.05
2022-12-08T23:54:07.952Z,17.30
2022-12-08T23:56:34.520Z,15.85
2022-12-08T23:59:01.309Z,18.02
